Masterton, New Zealand
Current Conditions -  °F | °C
As of 1:30 PM on Saturday 25 Oct 2014 (Local Time) from NZWN Reporting Station
Clear Clear  
Wind Chill: 55°   Ceiling: Unl
Heat Index: 55°   Visibility: 6mi
Dew Point: 39°   Wind: 7mph
Humidity: 54%   Direction: 190°S
Pressure: 30.18"   Gusts: NA
Location:  40.96°S, 175.66°E
Report Text: NZWN 250130Z AUTO 19006KT 150V240 9999 NCD 13/04 Q1022 BECMG35010KT
Loading
Personal Weather Stations






























Interactive Weather Map
Tropical Storm Tracking
New forecast layout! Learn more

10-Day Weather Forecast

Advertisements
Track Severe Weather on mobile